createdAt,value
2022-09-26T00:01:44.837Z,84.54
2022-09-26T00:04:21.175Z,86.22
2022-09-26T00:06:52.014Z,90.27
2022-09-26T00:09:20.974Z,95.01
2022-09-26T00:11:49.553Z,98.75
2022-09-26T00:14:20.503Z,100.00
2022-09-26T00:16:50.815Z,100.00
2022-09-26T00:19:19.917Z,99.68
2022-09-26T00:21:48.680Z,100.00
2022-09-26T00:24:17.263Z,100.00
2022-09-26T00:26:45.894Z,100.00
2022-09-26T00:29:15.410Z,98.99
2022-09-26T00:31:46.264Z,94.26
2022-09-26T00:34:17.527Z,94.85
2022-09-26T00:36:46.074Z,91.86
2022-09-26T00:39:16.602Z,89.04
2022-09-26T00:41:45.638Z,90.15
2022-09-26T00:44:43.292Z,89.03
2022-09-26T00:47:34.011Z,87.96
2022-09-26T00:50:08.569Z,86.73
2022-09-26T00:52:40.995Z,98.46
2022-09-26T00:55:14.122Z,100.00
2022-09-26T00:57:46.479Z,100.00
2022-09-26T01:00:16.131Z,95.46
2022-09-26T01:02:46.781Z,100.00
2022-09-26T01:05:19.666Z,100.00
2022-09-26T01:07:48.514Z,96.52
2022-09-26T01:10:17.184Z,100.00
2022-09-26T01:12:46.068Z,100.00
2022-09-26T01:15:15.058Z,97.13
2022-09-26T01:17:45.552Z,100.00
2022-09-26T01:20:34.498Z,100.00
2022-09-26T01:23:58.307Z,100.00
2022-09-26T01:27:02.346Z,100.00
2022-09-26T01:30:06.135Z,100.00
2022-09-26T01:33:01.875Z,100.00
2022-09-26T01:35:47.263Z,100.00
2022-09-26T01:38:26.647Z,100.00
2022-09-26T01:41:22.935Z,100.00
2022-09-26T01:43:58.052Z,100.00
2022-09-26T01:46:33.499Z,100.00
2022-09-26T01:49:15.556Z,100.00
2022-09-26T01:51:50.579Z,100.00
2022-09-26T01:54:23.092Z,100.00
2022-09-26T01:56:54.518Z,100.00
2022-09-26T01:59:28.546Z,100.00
2022-09-26T02:02:07.607Z,100.00
2022-09-26T02:04:40.754Z,100.00
2022-09-26T02:07:13.824Z,100.00
2022-09-26T02:09:46.219Z,100.00
2022-09-26T02:12:20.131Z,100.00
2022-09-26T02:14:52.301Z,100.00
2022-09-26T02:17:29.839Z,100.00
2022-09-26T02:20:00.699Z,100.00
2022-09-26T02:22:32.513Z,100.00
2022-09-26T02:25:01.197Z,100.00
2022-09-26T02:27:30.266Z,100.00
2022-09-26T02:29:59.701Z,100.00
2022-09-26T02:32:31.966Z,100.00
2022-09-26T02:35:22.319Z,100.00
2022-09-26T02:37:51.350Z,100.00
2022-09-26T02:40:23.292Z,100.00
2022-09-26T02:43:02.876Z,100.00
2022-09-26T02:45:41.205Z,100.00
2022-09-26T02:48:28.912Z,100.00
2022-09-26T02:51:16.936Z,100.00
2022-09-26T02:54:02.515Z,100.00
2022-09-26T02:56:48.129Z,100.00
2022-09-26T03:06:59.207Z,100.00
2022-09-26T03:09:41.457Z,100.00
2022-09-26T03:12:11.191Z,100.00
2022-09-26T03:14:43.332Z,100.00
2022-09-26T03:17:12.674Z,100.00
2022-09-26T03:19:46.624Z,100.00
2022-09-26T03:22:18.047Z,100.00
2022-09-26T03:24:47.823Z,100.00
2022-09-26T03:27:17.771Z,100.00
2022-09-26T03:29:46.322Z,100.00
2022-09-26T03:32:14.886Z,100.00
2022-09-26T03:34:43.431Z,100.00
2022-09-26T03:37:12.363Z,100.00
2022-09-26T03:39:42.139Z,100.00
2022-09-26T03:42:10.627Z,100.00
2022-09-26T03:44:39.043Z,100.00
2022-09-26T03:47:07.627Z,100.00
2022-09-26T03:49:36.286Z,100.00
2022-09-26T03:52:04.841Z,100.00
2022-09-26T03:54:33.283Z,100.00
2022-09-26T03:57:03.089Z,100.00
2022-09-26T03:59:31.524Z,100.00
2022-09-26T04:02:00.029Z,100.00
2022-09-26T04:04:29.172Z,100.00
2022-09-26T04:06:57.621Z,100.00
2022-09-26T04:09:27.179Z,100.00
2022-09-26T04:11:55.977Z,100.00
2022-09-26T04:14:26.479Z,100.00
2022-09-26T04:16:54.978Z,100.00
2022-09-26T04:19:23.489Z,100.00
2022-09-26T04:21:52.170Z,100.00
2022-09-26T04:24:21.375Z,100.00
2022-09-26T04:26:49.941Z,100.00
2022-09-26T04:29:18.553Z,100.00
2022-09-26T04:31:48.465Z,100.00
2022-09-26T04:34:16.965Z,100.00
2022-09-26T04:36:45.474Z,100.00
2022-09-26T04:39:14.025Z,100.00
2022-09-26T04:41:42.612Z,100.00
2022-09-26T04:44:12.750Z,100.00
2022-09-26T04:46:41.181Z,100.00
2022-09-26T04:49:12.287Z,100.00
2022-09-26T04:51:40.869Z,100.00
2022-09-26T04:54:09.507Z,100.00
2022-09-26T04:56:37.963Z,100.00
2022-09-26T04:59:06.630Z,100.00
2022-09-26T05:01:35.352Z,100.00
2022-09-26T05:04:04.256Z,100.00
2022-09-26T05:06:34.088Z,100.00
2022-09-26T05:09:04.284Z,100.00
2022-09-26T05:11:33.257Z,100.00
2022-09-26T05:14:03.520Z,100.00
2022-09-26T05:16:32.222Z,100.00
2022-09-26T05:19:00.889Z,100.00
2022-09-26T05:21:29.326Z,100.00
2022-09-26T05:24:16.457Z,100.00
2022-09-26T05:26:47.703Z,100.00
2022-09-26T05:29:17.427Z,100.00
2022-09-26T05:31:46.280Z,100.00
2022-09-26T05:34:19.540Z,100.00
2022-09-26T05:36:48.514Z,100.00
2022-09-26T05:39:39.031Z,100.00
2022-09-26T05:42:10.703Z,100.00
2022-09-26T05:44:39.847Z,100.00
2022-09-26T05:47:08.711Z,100.00
2022-09-26T05:49:37.229Z,100.00
2022-09-26T05:52:05.738Z,100.00
2022-09-26T05:54:35.531Z,100.00
2022-09-26T05:57:04.032Z,100.00
2022-09-26T05:59:32.461Z,100.00
2022-09-26T06:02:00.992Z,100.00
2022-09-26T06:04:29.573Z,100.00
2022-09-26T06:06:58.048Z,100.00
2022-09-26T06:09:26.455Z,100.00
2022-09-26T06:11:56.712Z,100.00
2022-09-26T06:14:26.226Z,100.00
2022-09-26T06:16:54.807Z,100.00
2022-09-26T06:19:23.520Z,100.00
2022-09-26T06:21:52.159Z,100.00
2022-09-26T06:24:20.594Z,100.00
2022-09-26T06:26:49.094Z,100.00
2022-09-26T06:29:18.876Z,100.00
2022-09-26T06:31:47.426Z,100.00
2022-09-26T06:34:16.713Z,100.00
2022-09-26T06:36:46.986Z,100.00
2022-09-26T06:39:15.922Z,100.00
2022-09-26T06:41:44.753Z,100.00
2022-09-26T06:44:13.188Z,100.00
2022-09-26T06:46:43.053Z,100.00
2022-09-26T06:49:11.498Z,100.00
2022-09-26T06:51:39.941Z,100.00
2022-09-26T06:54:08.449Z,100.00
2022-09-26T06:56:36.964Z,100.00
2022-09-26T06:59:05.439Z,100.00
2022-09-26T07:01:34.094Z,100.00
2022-09-26T07:04:04.619Z,100.00
2022-09-26T07:06:33.093Z,100.00
2022-09-26T07:09:04.635Z,100.00
2022-09-26T07:11:56.371Z,100.00
2022-09-26T07:14:23.642Z,100.00
2022-09-26T07:16:52.559Z,100.00
2022-09-26T07:19:22.700Z,100.00
2022-09-26T07:21:51.281Z,100.00
2022-09-26T07:24:20.102Z,100.00
2022-09-26T07:26:48.599Z,100.00
2022-09-26T07:29:18.188Z,100.00
2022-09-26T07:31:46.687Z,100.00
2022-09-26T07:34:18.332Z,100.00
2022-09-26T07:36:48.802Z,100.00
2022-09-26T07:39:17.364Z,100.00
2022-09-26T07:41:46.778Z,100.00
2022-09-26T07:45:09.637Z,100.00
2022-09-26T07:47:21.530Z,100.00
2022-09-26T07:50:07.509Z,100.00
2022-09-26T07:52:37.329Z,100.00
2022-09-26T07:55:06.173Z,100.00
2022-09-26T07:57:35.462Z,100.00
2022-09-26T08:00:05.924Z,100.00
2022-09-26T08:02:35.864Z,100.00
2022-09-26T08:05:05.877Z,100.00
2022-09-26T08:07:36.843Z,100.00
2022-09-26T08:10:06.861Z,100.00
2022-09-26T08:12:39.876Z,100.00
2022-09-26T08:15:09.353Z,100.00
2022-09-26T08:17:38.360Z,100.00
2022-09-26T08:20:07.697Z,100.00
2022-09-26T08:22:37.514Z,100.00
2022-09-26T08:25:07.762Z,100.00
2022-09-26T08:27:36.637Z,100.00
2022-09-26T08:30:06.130Z,100.00
2022-09-26T08:32:34.860Z,100.00
2022-09-26T08:35:03.344Z,100.00
2022-09-26T08:37:32.058Z,100.00
2022-09-26T08:40:01.989Z,100.00
2022-09-26T08:42:41.802Z,100.00
2022-09-26T08:45:48.759Z,100.00
2022-09-26T08:48:29.199Z,100.00
2022-09-26T08:51:06.630Z,100.00
2022-09-26T08:53:43.421Z,100.00
2022-09-26T08:56:20.809Z,100.00
2022-09-26T08:58:53.182Z,100.00
2022-09-26T09:01:27.896Z,100.00
2022-09-26T09:04:02.544Z,100.00
2022-09-26T09:06:31.153Z,100.00
2022-09-26T09:08:59.930Z,100.00
2022-09-26T09:11:51.317Z,100.00
2022-09-26T09:14:34.545Z,100.00
2022-09-26T09:17:16.267Z,100.00
2022-09-26T09:19:54.127Z,100.00
2022-09-26T09:22:44.898Z,100.00
2022-09-26T09:25:19.615Z,100.00
2022-09-26T09:28:08.652Z,100.00
2022-09-26T09:30:42.383Z,100.00
2022-09-26T09:33:15.879Z,100.00
2022-09-26T09:35:48.248Z,100.00
2022-09-26T09:38:19.587Z,100.00
2022-09-26T09:40:53.898Z,100.00
2022-09-26T09:43:31.237Z,100.00
2022-09-26T09:46:04.316Z,100.00
2022-09-26T09:48:32.904Z,100.00
2022-09-26T09:51:13.346Z,100.00
2022-09-26T09:53:59.969Z,100.00
2022-09-26T09:56:41.020Z,100.00
2022-09-26T09:59:24.333Z,100.00
2022-09-26T10:02:01.102Z,100.00
2022-09-26T10:04:37.704Z,100.00
2022-09-26T10:07:06.380Z,100.00
2022-09-26T10:09:40.911Z,100.00
2022-09-26T10:12:17.035Z,100.00
2022-09-26T10:14:54.984Z,100.00
2022-09-26T10:17:24.697Z,100.00
2022-09-26T10:19:53.277Z,100.00
2022-09-26T10:22:29.377Z,100.00
2022-09-26T10:25:04.106Z,100.00
2022-09-26T10:27:37.785Z,100.00
2022-09-26T10:30:25.802Z,100.00
2022-09-26T10:32:57.060Z,100.00
2022-09-26T10:35:29.597Z,100.00
2022-09-26T10:38:03.252Z,100.00
2022-09-26T10:40:48.425Z,100.00
2022-09-26T10:43:30.586Z,100.00
2022-09-26T10:46:08.939Z,100.00
2022-09-26T10:48:48.388Z,100.00
2022-09-26T10:51:26.896Z,100.00
2022-09-26T10:54:03.908Z,100.00
2022-09-26T10:56:38.294Z,100.00
2022-09-26T10:59:09.945Z,100.00
2022-09-26T11:01:44.158Z,100.00
2022-09-26T11:04:36.021Z,100.00
2022-09-26T11:07:06.959Z,100.00
2022-09-26T11:09:35.921Z,100.00
2022-09-26T11:12:23.976Z,100.00
2022-09-26T11:14:56.928Z,100.00
2022-09-26T11:17:44.866Z,100.00
2022-09-26T11:20:32.395Z,100.00
2022-09-26T11:23:08.673Z,100.00
2022-09-26T11:25:50.129Z,100.00
2022-09-26T11:28:25.690Z,100.00
2022-09-26T11:30:59.113Z,100.00
2022-09-26T11:33:29.011Z,100.00
2022-09-26T11:36:11.055Z,100.00
2022-09-26T11:38:47.539Z,100.00
2022-09-26T11:41:42.074Z,100.00
2022-09-26T11:44:52.934Z,100.00
2022-09-26T11:48:08.810Z,100.00
2022-09-26T11:50:49.565Z,100.00
2022-09-26T11:53:49.164Z,100.00
2022-09-26T11:56:49.988Z,100.00
2022-09-26T11:59:38.342Z,100.00
2022-09-26T12:02:31.964Z,100.00
2022-09-26T12:05:13.833Z,100.00
2022-09-26T12:07:49.583Z,100.00
2022-09-26T12:10:35.146Z,100.00
2022-09-26T12:13:34.384Z,100.00
2022-09-26T12:16:12.666Z,100.00
2022-09-26T12:18:53.445Z,100.00
2022-09-26T12:21:33.102Z,100.00
2022-09-26T12:24:13.175Z,100.00
2022-09-26T12:26:53.515Z,100.00
2022-09-26T12:29:33.211Z,100.00
2022-09-26T12:32:22.764Z,100.00
2022-09-26T12:35:08.212Z,100.00
2022-09-26T12:37:52.901Z,100.00
2022-09-26T12:40:36.230Z,100.00
2022-09-26T12:43:31.832Z,100.00
2022-09-26T12:46:15.940Z,100.00
2022-09-26T12:49:01.964Z,100.00
2022-09-26T12:51:42.869Z,100.00
2022-09-26T12:54:49.793Z,100.00
2022-09-26T12:57:31.038Z,100.00
2022-09-26T13:00:12.623Z,100.00
2022-09-26T13:03:09.818Z,100.00
2022-09-26T13:06:12.898Z,100.00
2022-09-26T13:08:53.333Z,100.00
2022-09-26T13:11:32.230Z,100.00
2022-09-26T13:14:34.917Z,100.00
2022-09-26T13:17:10.223Z,100.00
2022-09-26T13:19:44.619Z,100.00
2022-09-26T13:22:32.898Z,100.00
2022-09-26T13:25:08.026Z,100.00
2022-09-26T13:27:41.813Z,100.00
2022-09-26T13:30:18.693Z,100.00
2022-09-26T13:33:00.175Z,100.00
2022-09-26T13:35:31.840Z,100.00
2022-09-26T13:38:15.960Z,100.00
2022-09-26T13:40:51.736Z,100.00
2022-09-26T13:43:36.552Z,100.00
2022-09-26T13:46:14.383Z,100.00
2022-09-26T13:48:51.923Z,100.00
2022-09-26T13:51:26.184Z,100.00
2022-09-26T13:54:05.054Z,100.00
2022-09-26T13:56:55.996Z,100.00
2022-09-26T13:59:50.177Z,100.00
2022-09-26T14:02:28.961Z,100.00
2022-09-26T14:05:28.628Z,100.00
2022-09-26T14:08:14.744Z,100.00
2022-09-26T14:10:53.636Z,100.00
2022-09-26T14:13:35.505Z,100.00
2022-09-26T14:16:05.801Z,100.00
2022-09-26T14:18:59.414Z,100.00
2022-09-26T14:21:41.252Z,100.00
2022-09-26T14:24:43.494Z,100.00
2022-09-26T14:27:42.940Z,100.00
2022-09-26T14:30:29.098Z,100.00
2022-09-26T14:33:03.260Z,100.00
2022-09-26T14:35:35.956Z,100.00
2022-09-26T14:38:10.466Z,100.00
2022-09-26T14:40:40.024Z,100.00
2022-09-26T14:43:15.141Z,100.00
2022-09-26T14:45:49.745Z,100.00
2022-09-26T14:48:32.170Z,100.00
2022-09-26T14:51:05.048Z,100.00
2022-09-26T14:53:40.295Z,100.00
2022-09-26T14:56:12.101Z,100.00
2022-09-26T14:58:50.054Z,100.00
2022-09-26T15:01:29.705Z,100.00
2022-09-26T15:04:02.959Z,100.00
2022-09-26T15:06:39.761Z,100.00
2022-09-26T15:09:11.880Z,100.00
2022-09-26T15:11:45.527Z,100.00
2022-09-26T15:14:24.167Z,100.00
2022-09-26T15:16:56.419Z,100.00
2022-09-26T15:19:29.184Z,100.00
2022-09-26T15:22:02.301Z,100.00
2022-09-26T15:24:33.414Z,100.00
2022-09-26T15:27:09.254Z,100.00
2022-09-26T15:29:43.240Z,100.00
2022-09-26T15:32:16.895Z,100.00
2022-09-26T15:34:46.821Z,100.00
2022-09-26T15:37:22.157Z,100.00
2022-09-26T15:39:51.160Z,100.00
2022-09-26T15:42:48.495Z,100.00
2022-09-26T15:45:30.362Z,100.00
2022-09-26T15:48:00.428Z,100.00
2022-09-26T15:50:34.482Z,100.00
2022-09-26T15:53:20.133Z,100.00
2022-09-26T15:55:54.287Z,100.00
2022-09-26T15:58:32.749Z,100.00
2022-09-26T16:01:01.780Z,100.00
2022-09-26T16:03:41.404Z,100.00
2022-09-26T16:06:22.071Z,100.00
2022-09-26T16:08:56.455Z,100.00
2022-09-26T16:11:25.718Z,100.00
2022-09-26T16:13:56.464Z,100.00
2022-09-26T16:16:32.016Z,100.00
2022-09-26T16:19:03.961Z,100.00
2022-09-26T16:21:36.575Z,100.00
2022-09-26T16:24:29.488Z,100.00
2022-09-26T16:26:58.307Z,100.00
2022-09-26T16:29:34.120Z,100.00
2022-09-26T16:32:03.975Z,100.00
2022-09-26T16:34:33.050Z,100.00
2022-09-26T16:37:01.528Z,100.00
2022-09-26T16:39:32.415Z,100.00
2022-09-26T16:42:05.704Z,100.00
2022-09-26T16:44:38.379Z,100.00
2022-09-26T16:47:18.910Z,100.00
2022-09-26T16:49:48.828Z,100.00
2022-09-26T16:52:29.367Z,100.00
2022-09-26T16:55:01.135Z,100.00
2022-09-26T16:57:31.496Z,100.00
2022-09-26T17:00:19.852Z,100.00
2022-09-26T17:02:48.814Z,100.00
2022-09-26T17:05:19.627Z,100.00
2022-09-26T17:07:49.698Z,100.00
2022-09-26T17:10:21.914Z,100.00
2022-09-26T17:12:52.933Z,100.00
2022-09-26T17:15:27.237Z,100.00
2022-09-26T17:17:56.912Z,100.00
2022-09-26T17:20:26.885Z,100.00
2022-09-26T17:22:55.715Z,100.00
2022-09-26T17:25:25.994Z,100.00
2022-09-26T17:27:59.617Z,100.00
2022-09-26T17:30:28.225Z,100.00
2022-09-26T17:32:58.926Z,100.00
2022-09-26T17:35:31.918Z,100.00
2022-09-26T17:38:01.582Z,100.00
2022-09-26T17:40:33.031Z,100.00
2022-09-26T17:43:02.234Z,100.00
2022-09-26T17:45:33.988Z,100.00
2022-09-26T17:48:05.229Z,100.00
2022-09-26T17:50:35.528Z,100.00
2022-09-26T17:53:04.933Z,100.00
2022-09-26T17:55:34.705Z,100.00
2022-09-26T17:58:09.377Z,100.00
2022-09-26T18:00:41.072Z,100.00
2022-09-26T18:03:18.927Z,100.00
2022-09-26T18:05:47.874Z,100.00
2022-09-26T18:08:26.649Z,100.00
2022-09-26T18:10:58.819Z,100.00
2022-09-26T18:13:31.426Z,100.00
2022-09-26T18:16:00.775Z,100.00
2022-09-26T18:18:30.965Z,100.00
2022-09-26T18:21:03.892Z,100.00
2022-09-26T18:23:41.622Z,100.00
2022-09-26T18:26:20.540Z,100.00
2022-09-26T18:28:48.964Z,100.00
2022-09-26T18:31:17.673Z,100.00
2022-09-26T18:33:46.092Z,100.00
2022-09-26T18:36:15.084Z,100.00
2022-09-26T18:38:43.473Z,100.00
2022-09-26T18:41:15.769Z,100.00
2022-09-26T18:43:44.285Z,100.00
2022-09-26T18:46:16.880Z,100.00
2022-09-26T18:48:46.531Z,100.00
2022-09-26T18:51:15.449Z,100.00
2022-09-26T18:53:44.384Z,100.00
2022-09-26T18:56:31.645Z,100.00
2022-09-26T18:59:00.869Z,100.00
2022-09-26T19:01:32.002Z,100.00
2022-09-26T19:04:03.592Z,100.00
2022-09-26T19:06:36.181Z,100.00
2022-09-26T19:09:07.598Z,100.00
2022-09-26T19:11:37.390Z,100.00
2022-09-26T19:14:14.388Z,100.00
2022-09-26T19:16:43.139Z,100.00
2022-09-26T19:19:12.042Z,100.00
2022-09-26T19:21:42.431Z,100.00
2022-09-26T19:24:21.068Z,100.00
2022-09-26T19:26:54.666Z,100.00
2022-09-26T19:29:29.547Z,100.00
2022-09-26T19:31:58.492Z,100.00
2022-09-26T19:34:32.352Z,100.00
2022-09-26T19:37:03.195Z,100.00
2022-09-26T19:39:32.417Z,100.00
2022-09-26T19:42:02.203Z,100.00
2022-09-26T19:44:30.606Z,100.00
2022-09-26T19:46:59.989Z,100.00
2022-09-26T19:49:31.203Z,100.00
2022-09-26T19:52:01.102Z,100.00
2022-09-26T19:54:30.061Z,100.00
2022-09-26T19:56:58.829Z,100.00
2022-09-26T19:59:28.588Z,100.00
2022-09-26T20:01:57.175Z,100.00
2022-09-26T20:04:25.835Z,100.00
2022-09-26T20:06:54.249Z,100.00
2022-09-26T20:09:22.664Z,100.00
2022-09-26T20:11:51.064Z,100.00
2022-09-26T20:14:25.649Z,100.00
2022-09-26T20:16:58.897Z,100.00
2022-09-26T20:19:35.361Z,100.00
2022-09-26T20:22:06.058Z,100.00
2022-09-26T20:24:37.007Z,100.00
2022-09-26T20:27:08.510Z,100.00
2022-09-26T20:29:51.493Z,100.00
2022-09-26T20:32:21.572Z,100.00
2022-09-26T20:34:50.041Z,100.00
2022-09-26T20:37:19.882Z,100.00
2022-09-26T20:39:48.541Z,100.00
2022-09-26T20:42:19.906Z,100.00
2022-09-26T20:44:51.112Z,100.00
2022-09-26T20:47:22.850Z,100.00
2022-09-26T20:49:55.753Z,100.00
2022-09-26T20:52:26.053Z,100.00
2022-09-26T20:54:55.260Z,100.00
2022-09-26T20:57:24.233Z,100.00
2022-09-26T20:59:52.746Z,100.00
2022-09-26T21:02:29.377Z,100.00
2022-09-26T21:05:00.197Z,100.00
2022-09-26T21:07:29.993Z,100.00
2022-09-26T21:09:58.945Z,100.00
2022-09-26T21:12:27.386Z,100.00
2022-09-26T21:14:55.817Z,100.00
2022-09-26T21:17:29.286Z,100.00
2022-09-26T21:19:57.920Z,100.00
2022-09-26T21:22:28.373Z,100.00
2022-09-26T21:24:56.880Z,100.00
2022-09-26T21:27:26.185Z,100.00
2022-09-26T21:29:54.609Z,100.00
2022-09-26T21:32:24.773Z,100.00
2022-09-26T21:34:59.131Z,100.00
2022-09-26T21:37:27.644Z,100.00
2022-09-26T21:39:56.258Z,100.00
2022-09-26T21:42:26.904Z,100.00
2022-09-26T21:44:58.949Z,100.00
2022-09-26T21:47:28.062Z,100.00
2022-09-26T21:49:58.005Z,100.00
2022-09-26T21:52:35.650Z,100.00
2022-09-26T21:55:06.253Z,100.00
2022-09-26T21:57:39.690Z,100.00
2022-09-26T22:00:10.056Z,100.00
2022-09-26T22:02:41.294Z,100.00
2022-09-26T22:05:13.198Z,100.00
2022-09-26T22:07:41.674Z,100.00
2022-09-26T22:10:10.639Z,100.00
2022-09-26T22:12:39.030Z,100.00
2022-09-26T22:15:08.459Z,100.00
2022-09-26T22:17:36.997Z,100.00
2022-09-26T22:20:06.515Z,100.00
2022-09-26T22:22:38.220Z,100.00
2022-09-26T22:25:07.687Z,100.00
2022-09-26T22:27:36.283Z,100.00
2022-09-26T22:30:05.124Z,100.00
2022-09-26T22:32:33.658Z,100.00
2022-09-26T22:35:02.158Z,100.00
2022-09-26T22:37:30.758Z,100.00
2022-09-26T22:40:00.531Z,100.00
2022-09-26T22:42:28.937Z,100.00
2022-09-26T22:44:57.431Z,100.00
2022-09-26T22:47:25.916Z,100.00
2022-09-26T22:49:54.329Z,100.00
2022-09-26T22:52:22.753Z,100.00
2022-09-26T22:54:51.136Z,100.00
2022-09-26T22:57:20.889Z,100.00
2022-09-26T22:59:49.341Z,100.00
2022-09-26T23:02:17.832Z,100.00
2022-09-26T23:04:48.894Z,100.00
2022-09-26T23:07:19.301Z,100.00
2022-09-26T23:09:47.749Z,100.00
2022-09-26T23:12:16.557Z,100.00
2022-09-26T23:14:46.311Z,100.00
2022-09-26T23:17:14.828Z,100.00
2022-09-26T23:22:19.868Z,100.00
2022-09-26T23:24:48.282Z,100.00
2022-09-26T23:27:16.737Z,100.00
2022-09-26T23:29:46.541Z,100.00
2022-09-26T23:32:14.989Z,100.00
2022-09-26T23:34:43.400Z,100.00
2022-09-26T23:37:11.829Z,100.00
2022-09-26T23:39:40.220Z,100.00
2022-09-26T23:42:09.188Z,100.00
2022-09-26T23:44:37.610Z,100.00
2022-09-26T23:47:07.993Z,100.00
2022-09-26T23:49:36.387Z,100.00
2022-09-26T23:52:04.808Z,100.00
2022-09-26T23:54:33.194Z,100.00
2022-09-26T23:57:01.894Z,100.00
2022-09-26T23:59:30.304Z,100.00
